createdAt,value
2022-12-15T00:04:01.960Z,99239.84
2022-12-15T00:14:21.799Z,99236.41
2022-12-15T00:24:41.705Z,99270.38
2022-12-15T00:35:01.865Z,99289.41
2022-12-15T00:45:03.159Z,99291.91
2022-12-15T00:55:22.989Z,99303.88
2022-12-15T01:05:43.049Z,99298.56
2022-12-15T01:16:02.896Z,99302.66
2022-12-15T01:26:04.223Z,99319.84
2022-12-15T01:36:05.494Z,99325.03
2022-12-15T01:46:06.748Z,99322.72
2022-12-15T01:56:07.988Z,99336.31
2022-12-15T02:06:09.410Z,99330.38
2022-12-15T02:16:10.751Z,99347.28
2022-12-15T02:26:12.101Z,99348.19
2022-12-15T02:36:13.360Z,99349.03
2022-12-15T02:46:14.686Z,99363.75
2022-12-15T02:56:15.986Z,99364.44
2022-12-15T03:06:17.447Z,99373.56
2022-12-15T03:16:18.808Z,99379.81
2022-12-15T03:26:20.079Z,99380.44
2022-12-15T03:36:22.840Z,99390.00
2022-12-15T03:46:24.139Z,99396.97
2022-12-15T03:56:25.418Z,99386.56
2022-12-15T04:06:26.696Z,99389.13
2022-12-15T04:16:27.991Z,99400.94
2022-12-15T04:26:48.173Z,99398.25
2022-12-15T04:37:09.801Z,99412.88
2022-12-15T04:47:29.685Z,99413.69
2022-12-15T04:57:49.638Z,99417.00
2022-12-15T05:08:09.617Z,99414.44
2022-12-15T05:18:29.632Z,99419.88
2022-12-15T05:28:49.612Z,99437.06
2022-12-15T05:38:51.098Z,99430.22
2022-12-15T05:48:52.393Z,99435.25
2022-12-15T05:58:53.748Z,99440.28
2022-12-15T06:08:55.088Z,99448.03
2022-12-15T06:18:56.431Z,99450.53
2022-12-15T06:28:57.739Z,99457.19
2022-12-15T06:38:58.994Z,99479.47
2022-12-15T06:49:00.247Z,99488.84
2022-12-15T06:59:01.952Z,99485.56
2022-12-15T07:09:03.385Z,99484.41
2022-12-15T07:19:04.646Z,99469.75
2022-12-15T07:29:05.930Z,99452.59
2022-12-15T07:39:08.365Z,99461.75
2022-12-15T07:49:09.721Z,99468.28
2022-12-15T07:59:11.074Z,99509.34
2022-12-15T08:09:12.388Z,99522.53
2022-12-15T08:19:13.731Z,99546.16
2022-12-15T08:29:49.474Z,99544.19
2022-12-15T08:39:36.272Z,99570.59
2022-12-15T08:49:37.547Z,99574.66
2022-12-15T08:59:38.853Z,99567.22
2022-12-15T09:09:40.126Z,99557.03
2022-12-15T09:19:41.380Z,99539.13
2022-12-15T09:29:42.643Z,99567.16
2022-12-15T09:39:43.963Z,99564.38
2022-12-15T09:49:45.401Z,99552.34
2022-12-15T09:59:46.704Z,99543.19
2022-12-15T10:09:49.337Z,99553.56
2022-12-15T10:19:51.460Z,99546.19
2022-12-15T10:29:52.796Z,99555.28
2022-12-15T10:39:54.294Z,99558.75
2022-12-15T10:49:55.808Z,99527.69
2022-12-15T10:59:57.137Z,99508.19
2022-12-15T11:09:58.388Z,99492.78
2022-12-15T11:20:02.832Z,99478.38
2022-12-15T11:30:04.673Z,99476.59
2022-12-15T11:40:07.093Z,99476.59
2022-12-15T11:50:08.375Z,99460.13
2022-12-15T12:00:09.825Z,99437.19
2022-12-15T12:10:11.106Z,99410.47
2022-12-15T12:20:12.353Z,99399.63
2022-12-15T12:30:13.626Z,99393.94
2022-12-15T12:40:15.581Z,99397.34
2022-12-15T12:50:16.918Z,99368.03
2022-12-15T13:00:18.406Z,99368.78
2022-12-15T13:10:19.770Z,99350.59
2022-12-15T13:20:21.039Z,99345.34
2022-12-15T13:30:22.306Z,99341.31
2022-12-15T13:40:24.193Z,99332.53
2022-12-15T13:50:25.458Z,99337.22
2022-12-15T14:00:26.706Z,99315.72
2022-12-15T14:10:28.006Z,99324.94
2022-12-15T14:20:29.255Z,99319.69
2022-12-15T14:30:30.893Z,99343.38
2022-12-15T14:40:32.163Z,99329.59
2022-12-15T14:50:33.842Z,99349.78
2022-12-15T15:00:35.107Z,99357.59
2022-12-15T15:10:36.394Z,99356.38
2022-12-15T15:20:37.814Z,99344.31
2022-12-15T15:30:39.525Z,99343.16
2022-12-15T15:40:40.824Z,99340.56
2022-12-15T15:50:42.076Z,99332.91
2022-12-15T16:00:43.485Z,99341.28
2022-12-15T16:10:45.388Z,99336.88
2022-12-15T16:20:46.630Z,99344.69
2022-12-15T16:30:48.004Z,99333.72
2022-12-15T16:40:49.294Z,99342.22
2022-12-15T16:50:51.979Z,99345.94
2022-12-15T17:00:56.256Z,99355.56
2022-12-15T17:10:57.528Z,99340.34
2022-12-15T17:20:58.792Z,99325.09
2022-12-15T17:31:00.520Z,99319.09
2022-12-15T17:41:01.865Z,99303.78
2022-12-15T17:51:03.373Z,99293.75
2022-12-15T18:01:04.676Z,99291.78
2022-12-15T18:11:05.953Z,99291.78
2022-12-15T18:21:07.259Z,99285.19
2022-12-15T18:31:08.577Z,99287.84
2022-12-15T18:41:09.952Z,99283.75
2022-12-15T18:51:11.190Z,99265.06
2022-12-15T19:01:12.632Z,99269.19
2022-12-15T19:11:16.976Z,99270.19
2022-12-15T19:21:37.088Z,99267.16
2022-12-15T19:31:38.367Z,99265.44
2022-12-15T19:41:39.677Z,99262.91
2022-12-15T19:51:41.763Z,99261.34
2022-12-15T20:01:43.155Z,99271.00
2022-12-15T20:11:44.522Z,99273.41
2022-12-15T20:21:45.827Z,99260.38
2022-12-15T20:31:47.313Z,99277.44
2022-12-15T20:41:48.688Z,99269.88
2022-12-15T20:51:50.703Z,99262.94
2022-12-15T21:01:52.647Z,99270.59
2022-12-15T21:11:56.698Z,99282.44
2022-12-15T21:21:57.959Z,99287.97
2022-12-15T21:31:59.212Z,99285.81
2022-12-15T21:42:00.530Z,99289.28
2022-12-15T21:52:01.856Z,99283.41
2022-12-15T22:02:03.127Z,99298.97
2022-12-15T22:12:04.551Z,99297.25
2022-12-15T22:22:05.810Z,99303.28
2022-12-15T22:32:07.063Z,99308.72
2022-12-15T22:42:08.504Z,99297.78
2022-12-15T22:52:09.784Z,99290.94
2022-12-15T23:02:11.129Z,99295.41
2022-12-15T23:12:12.438Z,99293.53
2022-12-15T23:22:13.721Z,99276.56
2022-12-15T23:32:14.997Z,99277.38
2022-12-15T23:42:16.217Z,99271.41
2022-12-15T23:52:20.717Z,99271.28
